Time;durP1;ratioP1;P1;durP2;ratioP2;P2;SDS_P1;SDS_P2;PMS_P1;PMS_P2;Temp;Humidity;BMP_temperature;BMP_pressure;BME280_temperature;BME280_humidity;BME280_pressure;Samples;Min_cycle;Max_cycle;Signal;HPM_P1;HPM_P2
2022/11/23 00:02:28;;;;;;;17.10;6.65;;;9.40;99.90;;;;;;5053826;28;20439;-34
2022/11/23 00:04:53;;;;;;;16.40;6.55;;;9.40;99.90;;;;;;5051228;28;20025;-42
2022/11/23 00:07:19;;;;;;;18.77;7.35;;;9.40;99.90;;;;;;5050514;28;20476;-37
2022/11/23 00:09:44;;;;;;;18.42;6.95;;;9.30;99.90;;;;;;5051875;28;20443;-38
2022/11/23 00:12:10;;;;;;;19.05;7.47;;;9.40;99.90;;;;;;5055638;28;20028;-41
2022/11/23 00:14:36;;;;;;;15.65;7.88;;;9.40;99.90;;;;;;5052265;28;20473;-38
2022/11/23 00:17:01;;;;;;;13.20;7.50;;;9.50;99.90;;;;;;5050196;28;20041;-39
2022/11/23 00:19:27;;;;;;;18.05;8.40;;;9.50;99.90;;;;;;5050580;28;20051;-36
2022/11/23 00:21:53;;;;;;;21.25;9.93;;;9.50;99.90;;;;;;5049366;28;20058;-38
2022/11/23 00:24:18;;;;;;;15.07;8.15;;;9.50;99.90;;;;;;5050455;28;20025;-43
2022/11/23 00:26:44;;;;;;;18.77;8.25;;;9.50;99.90;;;;;;5049038;28;20037;-42
2022/11/23 00:29:09;;;;;;;19.45;9.40;;;9.40;99.90;;;;;;5054483;28;20041;-46
2022/11/23 00:31:35;;;;;;;17.65;8.50;;;9.50;99.90;;;;;;5053673;28;20578;-45
2022/11/23 00:34:01;;;;;;;21.88;8.88;;;9.40;99.90;;;;;;5050032;28;20060;-46
2022/11/23 00:36:27;;;;;;;17.17;7.93;;;9.40;99.90;;;;;;5051825;28;20025;-44
2022/11/23 00:38:53;;;;;;;20.90;9.85;;;9.40;99.90;;;;;;5017316;28;20033;-55
2022/11/23 00:41:22;;;;;;;21.17;8.07;;;9.40;99.90;;;;;;5046677;28;20496;-45
2022/11/23 00:43:47;;;;;;;41.80;9.48;;;9.40;99.90;;;;;;5048113;28;20029;-41
2022/11/23 00:46:19;;;;;;;16.50;8.60;;;9.30;99.90;;;;;;5043312;28;20036;-42
2022/11/23 00:48:47;;;;;;;27.83;9.02;;;9.30;99.90;;;;;;5044604;28;20037;-44
2022/11/23 00:51:19;;;;;;;20.77;9.63;;;9.30;99.90;;;;;;5033822;28;20040;-45
2022/11/23 00:53:44;;;;;;;17.98;8.25;;;9.30;99.90;;;;;;5041950;28;20037;-43
2022/11/23 00:56:10;;;;;;;13.88;8.05;;;9.30;99.90;;;;;;5047918;28;20074;-47
2022/11/23 00:58:39;;;;;;;20.08;9.52;;;9.30;99.90;;;;;;5041097;28;20033;-44
2022/11/23 01:01:10;;;;;;;17.35;8.82;;;9.30;99.90;;;;;;5033194;28;20018;-44
2022/11/23 01:03:38;;;;;;;23.42;9.85;;;9.30;99.90;;;;;;5033191;28;20524;-43
2022/11/23 01:06:06;;;;;;;28.58;9.98;;;9.30;99.90;;;;;;5033147;28;20041;-43
2022/11/23 01:08:32;;;;;;;;;;;9.30;99.90;;;;;;5033626;28;20561;-43
2022/11/23 01:10:59;;;;;;;32.25;11.02;;;9.30;99.90;;;;;;5052311;28;19909;-45
2022/11/23 01:13:25;;;;;;;21.73;9.40;;;9.30;99.90;;;;;;5031170;28;20057;-43
2022/11/23 01:15:51;;;;;;;20.88;9.48;;;9.30;99.90;;;;;;5051382;28;20330;-46
2022/11/23 01:18:16;;;;;;;28.17;9.15;;;9.40;99.90;;;;;;5052765;28;20037;-38
2022/11/23 01:20:42;;;;;;;18.08;8.70;;;9.30;99.90;;;;;;5052599;28;20029;-43
2022/11/23 01:23:08;;;;;;;19.90;9.10;;;9.30;99.90;;;;;;5052787;28;20118;-43
2022/11/23 01:25:36;;;;;;;19.45;9.00;;;9.40;99.90;;;;;;5051085;28;20029;-41
2022/11/23 01:28:02;;;;;;;15.63;8.73;;;9.40;99.90;;;;;;5032860;28;20040;-46
2022/11/23 01:30:27;;;;;;;18.38;7.55;;;9.40;99.90;;;;;;5047717;28;20028;-56
2022/11/23 01:32:53;;;;;;;18.40;7.57;;;9.40;99.90;;;;;;5052728;28;20036;-44
2022/11/23 01:35:19;;;;;;;22.33;7.70;;;9.40;99.90;;;;;;5052912;28;20159;-45
2022/11/23 01:37:44;;;;;;;21.20;7.47;;;9.30;99.90;;;;;;5052231;28;20032;-43
2022/11/23 01:40:10;;;;;;;19.20;7.97;;;9.40;99.90;;;;;;5051707;28;20385;-44
2022/11/23 01:42:54;;;;;;;17.20;7.30;;;9.40;99.90;;;;;;5052252;28;20496;-48
2022/11/23 01:45:39;;;;;;;13.77;6.65;;;9.40;99.90;;;;;;5044661;28;20021;-44
2022/11/23 01:48:13;;;;;;;17.08;7.22;;;9.40;99.90;;;;;;5052721;28;20508;-45
2022/11/23 01:50:41;;;;;;;20.33;7.22;;;9.40;99.90;;;;;;5052010;28;20519;-47
2022/11/23 01:53:07;;;;;;;19.80;8.77;;;9.40;99.90;;;;;;5067395;28;20044;-46
2022/11/23 01:55:33;;;;;;;21.42;7.10;;;9.40;99.90;;;;;;5052617;28;20028;-47
2022/11/23 01:58:00;;;;;;;22.67;7.90;;;9.40;99.90;;;;;;5036327;28;20152;-46
2022/11/23 02:00:26;;;;;;;18.83;7.93;;;9.40;99.90;;;;;;5041959;28;20104;-46
2022/11/23 02:02:58;;;;;;;21.38;7.15;;;9.40;99.90;;;;;;5052203;28;20033;-42
2022/11/23 02:05:30;;;;;;;12.13;6.95;;;9.30;99.90;;;;;;5051719;28;20036;-45
2022/11/23 02:07:59;;;;;;;15.02;6.35;;;9.30;99.90;;;;;;5051706;28;20487;-45
2022/11/23 02:10:25;;;;;;;10.27;6.68;;;9.30;99.90;;;;;;5050480;28;20056;-42
2022/11/23 02:12:51;;;;;;;19.27;7.43;;;9.20;99.90;;;;;;5034070;28;20519;-45
2022/11/23 02:15:17;;;;;;;15.02;6.60;;;9.30;99.90;;;;;;5051597;28;20142;-43
2022/11/23 02:17:43;;;;;;;14.18;6.85;;;9.20;99.90;;;;;;5044709;28;20507;-43
2022/11/23 02:20:12;;;;;;;14.38;7.30;;;9.30;99.90;;;;;;5050346;28;20025;-44
2022/11/23 02:22:50;;;;;;;14.02;6.40;;;9.30;99.90;;;;;;5052288;28;20033;-43
2022/11/23 02:25:31;;;;;;;12.93;6.60;;;9.20;99.90;;;;;;5046336;28;20021;-42
2022/11/23 02:27:57;;;;;;;13.23;5.93;;;9.20;99.90;;;;;;5032439;28;20036;-47
2022/11/23 02:30:23;;;;;;;10.63;5.60;;;9.20;99.90;;;;;;5037953;28;20400;-43
2022/11/23 02:32:49;;;;;;;12.60;4.97;;;9.20;99.90;;;;;;5036164;28;20033;-43
2022/11/23 02:35:14;;;;;;;10.38;5.53;;;9.20;99.90;;;;;;5047955;28;20028;-44
2022/11/23 02:37:42;;;;;;;17.35;6.78;;;9.10;99.90;;;;;;5051376;28;20056;-45
2022/11/23 02:40:27;;;;;;;19.80;5.80;;;9.10;99.90;;;;;;5051390;28;20492;-57
2022/11/23 02:42:53;;;;;;;19.45;6.10;;;9.10;99.90;;;;;;5032639;28;20025;-43
2022/11/23 02:45:40;;;;;;;10.02;5.18;;;9.10;99.90;;;;;;5049310;28;20032;-45
2022/11/23 02:48:06;;;;;;;13.88;6.05;;;9.10;99.90;;;;;;5047006;28;20476;-42
2022/11/23 02:50:32;;;;;;;14.02;5.72;;;9.20;99.90;;;;;;5054033;28;20111;-44
2022/11/23 02:52:57;;;;;;;11.57;6.00;;;9.20;99.90;;;;;;5053156;28;20104;-58
2022/11/23 02:55:23;;;;;;;16.48;6.05;;;9.10;99.90;;;;;;5052467;28;20028;-45
2022/11/23 02:57:49;;;;;;;18.65;6.47;;;9.10;99.90;;;;;;5053886;28;20039;-38
2022/11/23 03:00:16;;;;;;;20.80;8.15;;;9.00;99.90;;;;;;5052985;28;20481;-37
2022/11/23 03:02:44;;;;;;;15.75;6.97;;;9.00;99.90;;;;;;5053773;28;20473;-35
2022/11/23 03:05:10;;;;;;;21.08;6.60;;;8.90;99.90;;;;;;5052982;28;20021;-39
2022/11/23 03:07:35;;;;;;;17.65;7.80;;;8.90;99.90;;;;;;5053905;28;20032;-40
2022/11/23 03:10:02;;;;;;;18.83;7.25;;;8.90;99.90;;;;;;5053151;28;20108;-43
2022/11/23 03:12:27;;;;;;;17.50;5.68;;;8.90;99.90;;;;;;5053991;28;20469;-40
2022/11/23 03:14:53;;;;;;;14.48;6.97;;;9.00;99.90;;;;;;5052226;28;20021;-47
2022/11/23 03:17:18;;;;;;;16.67;6.60;;;9.00;99.90;;;;;;5054185;28;20055;-47
2022/11/23 03:19:44;;;;;;;14.18;7.97;;;9.00;99.90;;;;;;5052734;28;20059;-47
2022/11/23 03:22:10;;;;;;;23.45;7.45;;;9.00;99.90;;;;;;5053429;28;20037;-43
2022/11/23 03:24:35;;;;;;;16.80;7.78;;;9.00;99.90;;;;;;5052678;28;20033;-44
2022/11/23 03:27:01;;;;;;;15.48;6.93;;;9.00;99.90;;;;;;5055158;28;20116;-47
2022/11/23 03:29:27;;;;;;;14.35;6.53;;;9.00;99.90;;;;;;5052256;28;20039;-44
2022/11/23 03:31:53;;;;;;;14.32;5.88;;;9.00;99.90;;;;;;5055052;28;20025;-46
2022/11/23 03:34:19;;;;;;;21.80;7.70;;;9.00;99.90;;;;;;5054627;28;20551;-42
2022/11/23 03:36:44;;;;;;;9.48;5.80;;;9.00;99.90;;;;;;5053683;28;20029;-43
2022/11/23 03:39:10;;;;;;;15.73;5.43;;;9.00;99.90;;;;;;5054786;28;20035;-43
2022/11/23 03:41:35;;;;;;;17.05;6.28;;;9.00;99.90;;;;;;5036173;28;20029;-46
2022/11/23 03:46:45;;;;;;;9.65;5.43;;;9.10;99.90;;;;;;5054620;28;20078;-45
2022/11/23 03:49:11;;;;;;;7.95;5.43;;;9.10;99.90;;;;;;5054515;28;20028;-44
2022/11/23 03:51:37;;;;;;;11.73;5.97;;;9.10;99.90;;;;;;5054516;28;20021;-40
2022/11/23 03:54:02;;;;;;;11.23;5.97;;;9.20;99.90;;;;;;5053482;28;20393;-48
2022/11/23 03:56:28;;;;;;;12.80;5.70;;;9.20;99.90;;;;;;5054339;28;20025;-45
2022/11/23 03:58:53;;;;;;;13.52;5.68;;;9.20;99.90;;;;;;5053886;28;20028;-47
2022/11/23 04:01:19;;;;;;;12.48;5.43;;;9.20;99.90;;;;;;5052196;28;20025;-46
2022/11/23 04:03:45;;;;;;;8.77;5.18;;;9.30;99.90;;;;;;5034534;28;20029;-43
2022/11/23 04:06:10;;;;;;;14.43;5.68;;;9.20;99.90;;;;;;5034637;28;20086;-42
2022/11/23 04:08:36;;;;;;;11.23;6.30;;;9.20;99.90;;;;;;5051906;28;20488;-45
2022/11/23 04:11:02;;;;;;;12.57;6.30;;;9.20;99.90;;;;;;5052616;28;20518;-44
2022/11/23 04:13:27;;;;;;;11.85;5.40;;;9.20;99.90;;;;;;5033652;28;20044;-42
2022/11/23 04:15:53;;;;;;;10.70;5.78;;;9.20;99.90;;;;;;5053104;28;20039;-44
2022/11/23 04:18:18;;;;;;;10.55;6.05;;;9.20;99.90;;;;;;5052340;28;20098;-43
2022/11/23 04:20:44;;;;;;;11.57;5.78;;;9.20;99.90;;;;;;5034677;28;20025;-41
2022/11/23 04:23:09;;;;;;;11.00;5.50;;;9.20;99.90;;;;;;5051673;28;20025;-43
2022/11/23 04:25:35;;;;;;;10.02;4.88;;;9.20;99.90;;;;;;5050824;28;20048;-42
2022/11/23 04:28:01;;;;;;;10.38;5.43;;;9.20;99.90;;;;;;5049560;28;20024;-43
2022/11/23 04:30:29;;;;;;;13.40;5.38;;;9.20;99.90;;;;;;5051819;28;20029;-41
2022/11/23 04:32:55;;;;;;;11.77;6.03;;;9.20;99.90;;;;;;5052796;28;20032;-43
2022/11/23 04:35:21;;;;;;;8.82;5.07;;;9.20;99.90;;;;;;5050275;28;20032;-44
2022/11/23 04:37:46;;;;;;;10.68;4.72;;;9.30;99.90;;;;;;5052398;28;20060;-35
2022/11/23 04:40:13;;;;;;;14.48;5.32;;;9.30;99.90;;;;;;5051287;28;20052;-42
2022/11/23 04:42:38;;;;;;;11.45;4.82;;;9.20;99.90;;;;;;5050375;28;20029;-43
2022/11/23 04:45:04;;;;;;;18.58;5.15;;;9.20;99.90;;;;;;5052509;28;20078;-44
2022/11/23 04:47:30;;;;;;;15.85;3.72;;;9.30;99.90;;;;;;5052713;28;20029;-52
2022/11/23 04:49:56;;;;;;;7.25;4.13;;;9.20;99.90;;;;;;5051831;28;20071;-47
2022/11/23 04:52:21;;;;;;;10.02;4.53;;;9.20;99.90;;;;;;5051893;28;20473;-43
2022/11/23 04:54:47;;;;;;;5.85;3.80;;;9.30;99.90;;;;;;5050907;28;20070;-46
2022/11/23 04:57:13;;;;;;;17.00;5.90;;;9.30;99.90;;;;;;5052788;28;20052;-44
2022/11/23 04:59:38;;;;;;;9.50;3.97;;;9.20;99.90;;;;;;5050253;28;20025;-44
2022/11/23 05:02:04;;;;;;;13.70;4.88;;;9.10;99.90;;;;;;5050457;28;20028;-44
2022/11/23 05:04:30;;;;;;;7.38;4.03;;;9.00;99.90;;;;;;5050752;28;20037;-49
2022/11/23 05:06:55;;;;;;;13.88;4.32;;;9.00;99.90;;;;;;5052569;28;20021;-45
2022/11/23 05:09:21;;;;;;;13.25;4.10;;;9.00;99.90;;;;;;5051046;28;20025;-44
2022/11/23 05:11:47;;;;;;;11.02;4.18;;;9.10;99.90;;;;;;5051802;28;20017;-37
2022/11/23 05:14:13;;;;;;;10.25;4.07;;;9.10;99.90;;;;;;5051043;28;20112;-40
2022/11/23 05:16:38;;;;;;;6.22;3.92;;;9.10;99.90;;;;;;5051275;28;20504;-46
2022/11/23 05:19:04;;;;;;;6.20;3.85;;;9.20;99.90;;;;;;5052507;28;20029;-47
2022/11/23 05:21:30;;;;;;;10.90;4.38;;;9.20;99.90;;;;;;5047072;28;20063;-49
2022/11/23 05:23:55;;;;;;;15.77;4.80;;;9.20;99.90;;;;;;5052870;28;20366;-48
2022/11/23 05:26:21;;;;;;;6.65;3.78;;;9.20;99.90;;;;;;5049868;28;20047;-48
2022/11/23 05:28:46;;;;;;;14.30;4.78;;;9.30;99.90;;;;;;5048634;28;20108;-46
2022/11/23 05:31:12;;;;;;;8.40;4.13;;;9.20;99.90;;;;;;5052217;28;20061;-49
2022/11/23 05:33:38;;;;;;;13.82;4.00;;;9.20;99.90;;;;;;5034223;28;20539;-46
2022/11/23 05:36:04;;;;;;;11.25;5.18;;;9.20;99.90;;;;;;5052968;28;20029;-36
2022/11/23 05:38:29;;;;;;;18.80;5.00;;;9.30;99.90;;;;;;5041296;28;20041;-33
2022/11/23 05:40:55;;;;;;;7.75;4.22;;;9.30;99.90;;;;;;5052241;28;20477;-33
2022/11/23 05:43:21;;;;;;;8.68;4.10;;;9.30;99.90;;;;;;5051645;28;20072;-33
2022/11/23 05:45:46;;;;;;;12.50;4.50;;;9.30;99.90;;;;;;5052688;28;20031;-54
2022/11/23 05:48:12;;;;;;;10.15;4.50;;;9.20;99.90;;;;;;5052657;28;20493;-32
2022/11/23 05:50:37;;;;;;;12.48;4.40;;;9.30;99.90;;;;;;5052538;28;20029;-32
2022/11/23 05:53:03;;;;;;;15.63;5.70;;;9.30;99.90;;;;;;5051925;28;20389;-40
2022/11/23 05:55:29;;;;;;;13.75;4.13;;;9.30;99.90;;;;;;5052612;28;20029;-39
2022/11/23 05:57:54;;;;;;;13.77;4.53;;;9.30;99.90;;;;;;5051725;28;20021;-33
2022/11/23 06:00:20;;;;;;;10.35;4.05;;;9.30;99.90;;;;;;5052606;28;20508;-33
2022/11/23 06:02:46;;;;;;;10.15;4.35;;;9.20;99.90;;;;;;5052841;28;20052;-32
2022/11/23 06:05:11;;;;;;;10.93;4.55;;;9.20;99.90;;;;;;5046102;28;20033;-32
2022/11/23 06:07:37;;;;;;;15.43;4.45;;;9.10;99.90;;;;;;5051580;28;20017;-42
2022/11/23 06:10:05;;;;;;;10.50;4.53;;;9.10;99.90;;;;;;5050868;28;20350;-46
2022/11/23 06:12:31;;;;;;;5.10;3.27;;;9.10;99.90;;;;;;5048392;28;20021;-45
2022/11/23 06:14:56;;;;;;;17.40;4.68;;;9.10;99.90;;;;;;5051134;28;20295;-46
2022/11/23 06:17:23;;;;;;;7.13;4.55;;;9.10;99.90;;;;;;5047394;28;20572;-43
2022/11/23 06:19:49;;;;;;;10.13;3.63;;;9.10;99.90;;;;;;5049138;28;20025;-48
2022/11/23 06:22:14;;;;;;;10.63;4.85;;;9.10;99.90;;;;;;5052339;28;20125;-49
2022/11/23 06:24:41;;;;;;;10.25;4.15;;;9.10;99.90;;;;;;5054678;28;20488;-32
2022/11/23 06:27:07;;;;;;;11.20;4.43;;;9.10;99.90;;;;;;5053403;28;20072;-36
2022/11/23 06:29:33;;;;;;;9.88;4.63;;;9.00;99.90;;;;;;5053532;28;20021;-45
2022/11/23 06:31:59;;;;;;;15.18;4.47;;;9.10;99.90;;;;;;5055214;28;20028;-39
2022/11/23 06:34:24;;;;;;;15.00;4.38;;;9.00;99.90;;;;;;5054931;28;20108;-33
2022/11/23 06:36:50;;;;;;;13.77;4.28;;;9.00;99.90;;;;;;5045599;28;20029;-37
2022/11/23 06:39:16;;;;;;;18.35;4.47;;;9.00;99.90;;;;;;5055788;28;20108;-38
2022/11/23 06:41:42;;;;;;;9.98;4.07;;;9.00;99.90;;;;;;5054911;28;20013;-37
2022/11/23 06:44:07;;;;;;;13.25;4.07;;;9.00;99.90;;;;;;5054127;28;20044;-35
2022/11/23 06:46:33;;;;;;;16.67;4.00;;;8.90;99.90;;;;;;5055110;28;20108;-38
2022/11/23 06:48:59;;;;;;;19.67;4.05;;;8.90;99.90;;;;;;5053263;28;20508;-39
2022/11/23 06:51:24;;;;;;;15.75;3.55;;;8.90;99.90;;;;;;5054320;28;20021;-39
2022/11/23 06:53:50;;;;;;;13.93;3.22;;;8.80;99.90;;;;;;5053831;28;20025;-36
2022/11/23 06:56:16;;;;;;;4.00;2.47;;;8.70;99.90;;;;;;5054647;28;20103;-43
2022/11/23 06:58:41;;;;;;;11.10;2.70;;;8.60;99.90;;;;;;5052910;28;20029;-38
2022/11/23 07:01:08;;;;;;;17.00;2.95;;;8.50;99.90;;;;;;5053062;28;20025;-38
2022/11/23 07:03:35;;;;;;;9.02;3.05;;;8.50;99.90;;;;;;5054862;28;20393;-38
2022/11/23 07:06:08;;;;;;;7.43;1.58;;;8.50;99.90;;;;;;5052906;28;20107;-38
2022/11/23 07:08:35;;;;;;;19.83;1.70;;;8.40;99.90;;;;;;5052902;28;20086;-37
2022/11/23 07:11:05;;;;;;;14.40;2.15;;;8.30;99.90;;;;;;5025257;28;20482;-33
2022/11/23 07:13:31;;;;;;;16.25;2.35;;;8.30;99.90;;;;;;5033059;28;20132;-55
2022/11/23 07:15:58;;;;;;;10.40;1.83;;;8.30;99.90;;;;;;5053865;28;20028;-35
2022/11/23 07:18:24;;;;;;;10.20;1.80;;;8.30;99.90;;;;;;5053331;28;20120;-36
2022/11/23 07:20:50;;;;;;;6.03;1.75;;;8.20;99.90;;;;;;5054131;28;20021;-37
2022/11/23 07:23:16;;;;;;;4.22;1.40;;;8.20;99.90;;;;;;5053455;28;20511;-38
2022/11/23 07:25:42;;;;;;;10.90;2.30;;;8.20;99.90;;;;;;5052659;28;20476;-47
2022/11/23 07:28:10;;;;;;;10.52;1.60;;;8.20;99.90;;;;;;5051961;28;20087;-43
2022/11/23 07:30:36;;;;;;;9.27;1.95;;;8.30;99.90;;;;;;5049827;28;20029;-45
2022/11/23 07:33:07;;;;;;;9.85;1.77;;;8.40;99.90;;;;;;5052866;28;20436;-38
2022/11/23 07:35:34;;;;;;;7.35;1.27;;;8.40;99.90;;;;;;5052288;28;20469;-38
2022/11/23 07:38:00;;;;;;;13.00;1.65;;;8.40;99.90;;;;;;5053556;28;20013;-39
2022/11/23 07:40:26;;;;;;;6.10;1.95;;;8.40;99.90;;;;;;5051094;28;20036;-40
2022/11/23 07:42:57;;;;;;;9.60;1.60;;;8.50;99.90;;;;;;5052893;28;20021;-40
2022/11/23 07:45:25;;;;;;;12.38;1.80;;;8.60;99.90;;;;;;5054509;28;20025;-38
2022/11/23 07:48:03;;;;;;;14.52;2.70;;;8.60;99.90;;;;;;5054528;28;20021;-36
2022/11/23 07:50:29;;;;;;;8.30;2.00;;;8.60;99.90;;;;;;5054526;28;20024;-42
2022/11/23 07:52:55;;;;;;;15.27;1.63;;;8.70;99.90;;;;;;5035758;28;20380;-33
2022/11/23 07:55:21;;;;;;;8.95;1.50;;;8.70;99.90;;;;;;5053048;28;20485;-41
2022/11/23 07:57:50;;;;;;;6.10;1.45;;;8.70;99.90;;;;;;5052709;28;20033;-33
2022/11/23 08:00:16;;;;;;;9.70;2.10;;;8.80;99.90;;;;;;5035150;28;20541;-33
2022/11/23 08:02:41;;;;;;;11.25;1.85;;;8.80;99.90;;;;;;5052991;28;20035;-33
2022/11/23 08:05:07;;;;;;;15.68;2.40;;;8.90;99.90;;;;;;5053870;28;20465;-43
2022/11/23 08:07:33;;;;;;;11.48;1.90;;;8.90;99.90;;;;;;5053483;28;20525;-43
2022/11/23 08:09:58;;;;;;;8.60;2.28;;;9.00;99.90;;;;;;5051587;28;20021;-41
2022/11/23 08:12:24;;;;;;;6.93;2.03;;;8.90;99.90;;;;;;5052541;28;20055;-43
2022/11/23 08:14:50;;;;;;;7.63;1.48;;;8.90;99.90;;;;;;5047958;28;20028;-33
2022/11/23 08:17:15;;;;;;;8.25;2.13;;;8.90;99.90;;;;;;5053803;28;20037;-44
2022/11/23 08:19:41;;;;;;;13.02;2.25;;;8.90;99.90;;;;;;5053827;28;20051;-41
2022/11/23 08:22:06;;;;;;;13.73;1.60;;;8.90;99.90;;;;;;5053887;28;20024;-41
2022/11/23 08:24:32;;;;;;;9.48;1.65;;;8.90;99.90;;;;;;5046709;28;20105;-42
2022/11/23 08:26:58;;;;;;;6.65;1.20;;;9.00;99.90;;;;;;5051712;28;20029;-31
2022/11/23 08:29:23;;;;;;;12.77;2.85;;;8.90;99.90;;;;;;5052813;28;20032;-48
2022/11/23 08:31:50;;;;;;;16.70;2.47;;;9.00;99.90;;;;;;5052968;28;20033;-42
2022/11/23 08:34:17;;;;;;;6.75;1.50;;;8.90;99.90;;;;;;5049598;28;20056;-46
2022/11/23 08:36:43;;;;;;;11.65;2.33;;;8.90;99.90;;;;;;5034344;28;20029;-46
2022/11/23 08:39:27;;;;;;;9.60;1.35;;;8.90;99.90;;;;;;5049909;28;20112;-45
2022/11/23 08:41:53;;;;;;;12.27;2.85;;;9.00;99.90;;;;;;5049663;28;20021;-45
2022/11/23 08:44:18;;;;;;;14.77;2.28;;;8.90;99.90;;;;;;5049545;28;20131;-43
2022/11/23 08:46:44;;;;;;;8.50;1.73;;;9.00;99.90;;;;;;5050619;28;20056;-47
2022/11/23 08:49:09;;;;;;;17.95;3.03;;;9.00;99.90;;;;;;5050671;28;20116;-48
2022/11/23 08:51:35;;;;;;;10.68;2.03;;;9.10;99.90;;;;;;5050589;28;20551;-47
2022/11/23 08:54:01;;;;;;;9.48;2.22;;;9.10;99.90;;;;;;5048041;28;20034;-42
2022/11/23 08:56:26;;;;;;;6.63;1.73;;;9.20;99.90;;;;;;5051315;28;20501;-45
2022/11/23 08:58:52;;;;;;;19.83;2.17;;;9.20;99.90;;;;;;5049806;28;20032;-44
2022/11/23 09:01:18;;;;;;;11.98;1.95;;;9.30;99.90;;;;;;5033260;28;20027;-46
2022/11/23 09:03:44;;;;;;;14.32;1.80;;;9.30;99.90;;;;;;5044789;28;20029;-48
2022/11/23 09:06:10;;;;;;;7.22;2.03;;;9.30;99.90;;;;;;5050089;28;20111;-42
2022/11/23 09:08:36;;;;;;;12.05;1.58;;;9.40;99.90;;;;;;5052133;28;20040;-46
2022/11/23 09:11:05;;;;;;;6.60;2.20;;;9.40;99.90;;;;;;5050511;28;20033;-43
2022/11/23 09:13:30;;;;;;;13.05;4.05;;;9.40;99.90;;;;;;5047159;28;20859;-43
2022/11/23 09:15:58;;;;;;;16.05;2.33;;;9.40;99.90;;;;;;5051635;28;20041;-45
2022/11/23 09:18:25;;;;;;;17.45;3.15;;;9.40;99.90;;;;;;5049121;28;20488;-45
2022/11/23 09:20:51;;;;;;;8.68;1.60;;;9.50;99.90;;;;;;5048065;28;20099;-42
2022/11/23 09:23:17;;;;;;;9.70;1.40;;;9.50;99.90;;;;;;5050645;28;20115;-43
2022/11/23 09:25:46;;;;;;;20.85;2.42;;;9.60;99.90;;;;;;5050223;28;20495;-39
2022/11/23 09:28:13;;;;;;;4.63;1.75;;;9.70;99.90;;;;;;5047992;28;20468;-47
2022/11/23 09:30:42;;;;;;;27.60;2.60;;;9.70;99.90;;;;;;5050057;28;20120;-44
2022/11/23 09:33:08;;;;;;;9.05;2.45;;;9.70;99.90;;;;;;5048760;28;20488;-43
2022/11/23 09:35:34;;;;;;;8.95;1.55;;;9.70;99.90;;;;;;5051110;28;20047;-45
2022/11/23 09:38:00;;;;;;;17.67;2.75;;;9.70;99.90;;;;;;5052672;28;20468;-45
2022/11/23 09:40:46;;;;;;;10.00;2.15;;;9.80;99.90;;;;;;5052679;28;20088;-50
2022/11/23 09:43:30;;;;;;;20.63;2.00;;;9.70;99.90;;;;;;5049856;28;20542;-48
2022/11/23 09:46:07;;;;;;;8.00;1.98;;;9.80;99.90;;;;;;5052613;28;20469;-43
2022/11/23 09:48:59;;;;;;;7.60;1.77;;;9.70;99.90;;;;;;5051695;28;20021;-48
2022/11/23 09:51:25;;;;;;;5.30;1.33;;;9.80;99.90;;;;;;5052702;28;20499;-44
2022/11/23 09:53:55;;;;;;;7.15;1.98;;;9.80;99.90;;;;;;5050666;28;20096;-44
2022/11/23 09:56:29;;;;;;;12.15;2.50;;;9.90;99.90;;;;;;5051665;28;20037;-44
2022/11/23 09:58:58;;;;;;;14.70;1.85;;;9.90;99.90;;;;;;5056150;28;20428;-46
2022/11/23 10:01:26;;;;;;;10.68;1.70;;;9.90;99.90;;;;;;5064340;28;20388;-43
2022/11/23 10:03:52;;;;;;;;;;;9.90;99.90;;;;;;5052380;28;20078;-41
2022/11/23 10:06:22;;;;;;;5.65;1.48;;;9.90;99.90;;;;;;5058024;28;19909;-38
2022/11/23 10:09:08;;;;;;;6.97;1.70;;;9.90;99.90;;;;;;5056535;28;20466;-39
2022/11/23 10:11:48;;;;;;;6.93;1.30;;;10.00;99.90;;;;;;5053709;28;20481;-55
2022/11/23 10:14:32;;;;;;;8.32;1.33;;;10.00;99.90;;;;;;5048936;28;20128;-36
2022/11/23 10:17:08;;;;;;;12.30;1.88;;;9.90;99.90;;;;;;5050219;28;20052;-34
2022/11/23 10:19:44;;;;;;;11.48;1.10;;;10.00;99.90;;;;;;5049225;28;20543;-36
2022/11/23 10:22:15;;;;;;;4.25;1.95;;;10.00;99.90;;;;;;5048591;28;20511;-38
2022/11/23 10:24:49;;;;;;;12.63;1.98;;;10.00;99.90;;;;;;5055768;28;20504;-38
2022/11/23 10:27:17;;;;;;;8.32;2.05;;;10.00;99.90;;;;;;5054744;28;20091;-36
2022/11/23 10:29:44;;;;;;;11.65;1.90;;;10.00;99.90;;;;;;5053858;28;20401;-35
2022/11/23 10:32:42;;;;;;;7.53;1.88;;;9.90;99.90;;;;;;5055087;28;20515;-56
2022/11/23 10:35:15;;;;;;;6.18;1.35;;;9.90;99.90;;;;;;5054056;28;20106;-38
2022/11/23 10:37:41;;;;;;;11.25;1.45;;;10.00;99.90;;;;;;5056066;28;20388;-37
2022/11/23 10:40:28;;;;;;;12.15;1.73;;;10.00;99.90;;;;;;5055713;28;20029;-35
2022/11/23 10:43:00;;;;;;;8.60;2.10;;;10.10;99.90;;;;;;5054996;28;20037;-33
2022/11/23 10:45:28;;;;;;;9.10;1.73;;;10.00;99.90;;;;;;5055714;28;20055;-37
2022/11/23 10:47:59;;;;;;;4.70;1.75;;;10.00;99.90;;;;;;5055628;28;20037;-39
2022/11/23 10:50:36;;;;;;;12.00;2.10;;;10.00;99.90;;;;;;5055580;28;20039;-38
2022/11/23 10:53:05;;;;;;;11.02;2.25;;;10.00;99.90;;;;;;5036292;28;20064;-40
2022/11/23 10:55:33;;;;;;;5.07;1.70;;;10.00;99.90;;;;;;5055482;28;20032;-34
2022/11/23 10:57:59;;;;;;;;;;;10.10;99.90;;;;;;5053642;28;20064;-32
2022/11/23 11:00:27;;;;;;;8.02;1.75;;;10.10;99.90;;;;;;5055515;28;19908;-35
2022/11/23 11:02:55;;;;;;;15.30;2.17;;;10.10;99.90;;;;;;5053639;28;20024;-40
2022/11/23 11:05:26;;;;;;;18.92;1.98;;;10.10;99.90;;;;;;5053842;28;20032;-36
2022/11/23 11:07:53;;;;;;;9.07;1.90;;;10.10;99.90;;;;;;5053483;28;20029;-41
2022/11/23 11:10:40;;;;;;;4.53;1.40;;;10.10;99.90;;;;;;5053599;28;20480;-37
2022/11/23 11:13:24;;;;;;;7.13;2.07;;;10.10;99.90;;;;;;5054176;28;20116;-35
2022/11/23 11:15:59;;;;;;;5.45;1.25;;;10.00;99.90;;;;;;5055173;28;20025;-57
2022/11/23 11:18:27;;;;;;;6.20;1.25;;;9.90;99.90;;;;;;5054204;28;20143;-56
2022/11/23 11:21:00;;;;;;;12.45;1.42;;;9.90;99.90;;;;;;5055403;28;20029;-40
2022/11/23 11:23:27;;;;;;;13.60;1.60;;;9.80;99.90;;;;;;5052746;28;20111;-40
2022/11/23 11:26:28;;;;;;;10.15;1.58;;;9.90;99.90;;;;;;5054076;28;20108;-37
2022/11/23 11:28:56;;;;;;;10.18;2.35;;;9.90;99.90;;;;;;5049984;28;20049;-31
2022/11/23 11:31:30;;;;;;;8.98;1.85;;;9.90;99.90;;;;;;5036303;28;20505;-46
2022/11/23 11:34:23;;;;;;;6.20;1.70;;;10.00;99.90;;;;;;5054748;28;20447;-31
2022/11/23 11:37:16;;;;;;;8.80;1.75;;;10.10;99.90;;;;;;5054032;28;20020;-31
2022/11/23 11:39:57;;;;;;;11.27;1.90;;;10.20;99.90;;;;;;5042500;28;20531;-35
2022/11/23 11:42:32;;;;;;;6.88;1.45;;;10.20;99.90;;;;;;5053765;28;20071;-39
2022/11/23 11:45:00;;;;;;;11.40;1.58;;;10.30;99.90;;;;;;5051906;28;20537;-38
2022/11/23 11:47:44;;;;;;;7.75;1.80;;;10.30;99.90;;;;;;5054631;28;20576;-39
2022/11/23 11:50:27;;;;;;;3.15;1.35;;;10.30;99.90;;;;;;5053710;28;20120;-36
2022/11/23 11:52:59;;;;;;;11.65;2.13;;;10.40;99.90;;;;;;5054653;28;20134;-37
2022/11/23 11:55:54;;;;;;;9.60;2.92;;;10.30;99.90;;;;;;5053903;28;20551;-46
2022/11/23 11:58:23;;;;;;;8.15;1.20;;;10.30;99.90;;;;;;5052677;28;20029;-44
2022/11/23 12:00:50;;;;;;;5.75;1.48;;;10.30;99.90;;;;;;5053612;28;20021;-45
2022/11/23 12:03:34;;;;;;;5.70;1.80;;;10.30;99.90;;;;;;5054358;28;20071;-41
2022/11/23 12:06:27;;;;;;;4.90;1.33;;;10.30;99.90;;;;;;5054504;28;20275;-43
2022/11/23 12:09:00;;;;;;;8.73;1.35;;;10.40;99.90;;;;;;5053326;28;20025;-48
2022/11/23 12:11:26;;;;;;;1.40;0.60;;;10.50;99.90;;;;;;5053727;28;20469;-49
2022/11/23 12:14:00;;;;;;;7.20;1.45;;;10.50;99.90;;;;;;5053348;28;20043;-48
2022/11/23 12:16:43;;;;;;;6.47;1.15;;;10.50;99.90;;;;;;5053591;28;20029;-46
2022/11/23 12:19:09;;;;;;;7.72;1.40;;;10.60;99.90;;;;;;5054256;28;20032;-34
2022/11/23 12:21:59;;;;;;;5.00;1.08;;;10.50;99.90;;;;;;5053450;28;20029;-41
2022/11/23 12:24:31;;;;;;;7.82;1.20;;;10.50;99.90;;;;;;5051118;28;20020;-38
2022/11/23 12:27:02;;;;;;;6.25;0.90;;;10.60;99.90;;;;;;5049267;28;20475;-45
2022/11/23 12:30:03;;;;;;;10.18;1.02;;;10.50;99.90;;;;;;5052908;28;20144;-36
2022/11/23 12:32:43;;;;;;;3.67;0.80;;;10.60;99.90;;;;;;4972692;28;20114;-39
2022/11/23 12:35:38;;;;;;;5.82;1.58;;;10.60;99.90;;;;;;5044065;28;20045;-34
2022/11/23 12:38:39;;;;;;;4.85;1.20;;;10.60;99.90;;;;;;5053586;28;20515;-38
2022/11/23 12:41:22;;;;;;;3.40;0.60;;;10.60;99.90;;;;;;5052535;28;20025;-55
2022/11/23 12:44:03;;;;;;;7.10;1.42;;;10.70;99.90;;;;;;5052646;28;20477;-36
2022/11/23 12:46:55;;;;;;;5.45;0.80;;;10.60;99.90;;;;;;5052532;28;20397;-37
2022/11/23 12:49:40;;;;;;;4.78;1.25;;;10.60;99.90;;;;;;5052603;28;20029;-39
2022/11/23 12:52:30;;;;;;;3.45;1.30;;;10.60;99.90;;;;;;5052550;28;20021;-44
2022/11/23 12:55:13;;;;;;;3.03;1.02;;;10.50;99.90;;;;;;5051812;28;20452;-46
2022/11/23 12:58:22;;;;;;;1.63;0.90;;;10.50;99.90;;;;;;5045359;28;20055;-45
2022/11/23 13:00:54;;;;;;;4.22;1.10;;;10.60;99.90;;;;;;4972111;28;20050;-45
2022/11/23 13:03:25;;;;;;;4.72;0.90;;;10.60;99.90;;;;;;5039511;28;20099;-50